createdAt,value
2023-01-19T00:09:47.169Z,28
2023-01-19T00:38:58.616Z,31
2023-01-19T01:08:15.908Z,34
2023-01-19T01:37:29.953Z,33
2023-01-19T02:06:48.862Z,32
2023-01-19T02:36:08.570Z,34
2023-01-19T03:05:32.290Z,34
2023-01-19T03:34:45.354Z,32
2023-01-19T04:04:08.100Z,31
2023-01-19T04:33:27.179Z,31
2023-01-19T05:02:45.665Z,31
2023-01-19T05:31:55.006Z,30
2023-01-19T06:01:11.119Z,33
2023-01-19T06:30:19.017Z,29
2023-01-19T06:59:40.903Z,29
2023-01-19T07:28:59.394Z,30
2023-01-19T07:58:15.829Z,28
2023-01-19T08:27:23.530Z,28
2023-01-19T08:56:40.253Z,27
2023-01-19T09:25:56.091Z,29
2023-01-19T09:55:09.133Z,33
2023-01-19T10:24:33.950Z,23
2023-01-19T10:53:53.589Z,22
2023-01-19T11:23:12.573Z,22
2023-01-19T11:52:37.139Z,22
2023-01-19T12:21:49.118Z,22
2023-01-19T12:51:01.420Z,22
2023-01-19T13:20:21.792Z,23
2023-01-19T13:49:38.974Z,22
2023-01-19T14:18:59.579Z,22
2023-01-19T14:48:21.043Z,22
2023-01-19T15:17:42.275Z,22
2023-01-19T15:47:06.183Z,25
2023-01-19T16:16:25.713Z,25
2023-01-19T16:45:39.059Z,25
2023-01-19T17:14:53.551Z,28
2023-01-19T17:44:08.112Z,28
2023-01-19T18:13:25.837Z,25
2023-01-19T18:42:41.804Z,26
2023-01-19T19:12:01.167Z,25
2023-01-19T19:41:18.689Z,25
2023-01-19T20:10:26.992Z,31
2023-01-19T20:39:45.836Z,28
2023-01-19T21:09:03.131Z,28
2023-01-19T21:38:15.608Z,29
2023-01-19T22:07:36.358Z,27
2023-01-19T22:36:52.383Z,26
2023-01-19T23:06:13.542Z,28
2023-01-19T23:35:29.568Z,27
